Terminal Aerodrome Forecast
Issued by NWS

Home | Current Version | Previous Version | Graphics & Text | Print | Product List | Glossary On
Versions: 1 2 3 4 5 6 7 8 9 10 11 12 13 14 15 16 17 18 19 20 21 22 23
473
FTUS43 KIWX 110839 AAA
TAFSBN
TAF AMD
KSBN 110839Z 1109/1206 27008KT 6SM -SHSN SCT025 BKN050
      TEMPO 1109/1113 2SM -SHSN OVC025
     FM111500 29008KT P6SM -SHSN BKN030
     FM120000 25005KT P6SM BKN100=

USA.gov is the U.S. government's official web portal to all federal, state and local government web resources and services.